SHT791 EGJB-EGLC
Flight info
| Callsign | SHT791 |
|---|---|
| Flight time | N/A |
| Altitude | 18000 |
| Route | GULDA G271 BENIX/N0387F190 G27 NEVIL |
| Aircraft | A320/M-SDE3FGHIRWY/LB1 |
Departure
| Time | 2026-04-24 17:03 |
|---|---|
| Airport | Guernsey Airport (EGJB) |
Arrival
| Time | N/A |
|---|---|
| Airport | London City Airport (EGLC) |
| Time | Latitude | Longitude | Altitude | Speed | Heading |
|---|---|---|---|---|---|
| 2026-04-24 16:44 | 49.43252 | -2.59621 | 341 ft | 0 kts | 178° |
| 2026-04-24 16:57 | 49.43255 | -2.59621 | 335 ft | 2 kts | 178° |
| 2026-04-24 16:58 | 49.43271 | -2.59622 | 338 ft | 2 kts | 178° |
| 2026-04-24 16:58 | 49.43287 | -2.59623 | 335 ft | 2 kts | 178° |
| 2026-04-24 16:58 | 49.43303 | -2.59624 | 338 ft | 2 kts | 178° |
| 2026-04-24 16:58 | 49.43319 | -2.59625 | 336 ft | 2 kts | 178° |
| 2026-04-24 16:59 | 49.43335 | -2.59624 | 339 ft | 2 kts | 202° |
| 2026-04-24 16:59 | 49.43349 | -2.59612 | 338 ft | 2 kts | 235° |
| 2026-04-24 16:59 | 49.43356 | -2.59592 | 336 ft | 0 kts | 264° |
| 2026-04-24 17:00 | 49.43354 | -2.59626 | 338 ft | 9 kts | 265° |
| 2026-04-24 17:00 | 49.43347 | -2.59777 | 335 ft | 18 kts | 266° |
| 2026-04-24 17:01 | 49.43333 | -2.60257 | 330 ft | 27 kts | 268° |
| 2026-04-24 17:01 | 49.43325 | -2.60569 | 323 ft | 31 kts | 270° |
| 2026-04-24 17:02 | 49.43361 | -2.61127 | 316 ft | 20 kts | 267° |
| 2026-04-24 17:02 | 49.43408 | -2.61335 | 312 ft | 18 kts | 323° |
| 2026-04-24 17:02 | 49.43466 | -2.61307 | 314 ft | 7 kts | 77° |
| 2026-04-24 17:02 | 49.43467 | -2.61281 | 314 ft | 0 kts | 88° |
| 2026-04-24 17:03 | 49.43510 | -2.60137 | 335 ft | 121 kts | 81° |
| 2026-04-24 17:03 | 49.43577 | -2.58714 | 748 ft | 138 kts | 86° |
| 2026-04-24 17:03 | 49.43603 | -2.57209 | 1489 ft | 142 kts | 90° |
| 2026-04-24 17:04 | 49.43630 | -2.55622 | 1967 ft | 159 kts | 91° |
| 2026-04-24 17:04 | 49.43814 | -2.51689 | 2736 ft | 213 kts | 86° |
| 2026-04-24 17:04 | 49.44074 | -2.49293 | 3008 ft | 238 kts | 83° |
| 2026-04-24 17:05 | 49.44408 | -2.46765 | 3057 ft | 246 kts | 82° |
| 2026-04-24 17:05 | 49.44767 | -2.44205 | 3074 ft | 244 kts | 81° |
| 2026-04-24 17:05 | 49.45482 | -2.39148 | 3017 ft | 243 kts | 82° |
| 2026-04-24 17:06 | 49.45832 | -2.36612 | 3021 ft | 243 kts | 82° |
| 2026-04-24 17:06 | 49.46509 | -2.31560 | 3020 ft | 241 kts | 82° |
| 2026-04-24 17:06 | 49.46842 | -2.29020 | 3065 ft | 245 kts | 82° |
| 2026-04-24 17:07 | 49.47073 | -2.27265 | 3519 ft | 251 kts | 82° |
| 2026-04-24 17:07 | 49.47487 | -2.23807 | 5014 ft | 248 kts | 88° |
| 2026-04-24 17:07 | 49.46582 | -2.18704 | 6933 ft | 254 kts | 114° |
| 2026-04-24 17:08 | 49.45072 | -2.13689 | 8742 ft | 263 kts | 113° |
| 2026-04-24 17:08 | 49.44291 | -2.11081 | 9664 ft | 267 kts | 113° |
| 2026-04-24 17:08 | 49.43509 | -2.08460 | 10451 ft | 275 kts | 113° |
| 2026-04-24 17:09 | 49.41785 | -2.02659 | 11027 ft | 322 kts | 113° |
| 2026-04-24 17:09 | 49.40074 | -1.96097 | 12228 ft | 337 kts | 102° |
| 2026-04-24 17:10 | 49.39826 | -1.93738 | 12699 ft | 340 kts | 94° |
| 2026-04-24 17:10 | 49.41723 | -1.83262 | 14784 ft | 353 kts | 60° |
| 2026-04-24 17:11 | 49.45506 | -1.73354 | 16696 ft | 364 kts | 59° |
| 2026-04-24 17:12 | 49.52101 | -1.55877 | 18215 ft | 408 kts | 59° |